createdAt,value
2022-12-04T00:02:26.942Z,20.13
2022-12-04T00:07:30.781Z,18.80
2022-12-04T00:12:35.048Z,19.38
2022-12-04T00:17:37.156Z,16.38
2022-12-04T00:22:41.001Z,18.58
2022-12-04T00:27:43.136Z,18.52
2022-12-04T00:32:45.204Z,20.25
2022-12-04T00:37:49.089Z,19.88
2022-12-04T00:42:51.244Z,16.98
2022-12-04T00:47:53.392Z,21.73
2022-12-04T00:52:56.901Z,19.88
2022-12-04T00:58:00.137Z,20.90
2022-12-04T01:03:02.606Z,18.58
2022-12-04T01:08:06.658Z,17.48
2022-12-04T01:13:09.541Z,21.63
2022-12-04T01:18:12.254Z,20.55
2022-12-04T01:23:15.997Z,20.38
2022-12-04T01:28:18.228Z,21.25
2022-12-04T01:33:20.434Z,21.92
2022-12-04T01:38:24.516Z,20.60
2022-12-04T01:43:29.521Z,20.52
2022-12-04T01:48:33.826Z,21.20
2022-12-04T01:53:40.713Z,25.35
2022-12-04T01:58:48.310Z,22.92
2022-12-04T02:03:50.690Z,21.95
2022-12-04T02:08:57.438Z,23.92
2022-12-04T02:14:10.750Z,23.85
2022-12-04T02:19:41.707Z,24.67
2022-12-04T02:24:53.933Z,25.20
2022-12-04T02:30:02.099Z,24.08
2022-12-04T02:35:09.023Z,22.20
2022-12-04T02:45:22.146Z,23.20
2022-12-04T02:50:26.134Z,25.13
2022-12-04T02:55:32.412Z,24.60
2022-12-04T03:00:37.847Z,21.97
2022-12-04T03:05:51.515Z,25.52
2022-12-04T03:10:56.267Z,25.20
2022-12-04T03:16:06.140Z,26.27
2022-12-04T03:21:12.034Z,25.08
2022-12-04T03:26:25.955Z,26.20
2022-12-04T03:31:40.054Z,22.65
2022-12-04T03:36:49.137Z,24.63
2022-12-04T03:41:58.719Z,27.13
2022-12-04T03:47:08.766Z,21.45
2022-12-04T03:52:16.224Z,23.67
2022-12-04T03:57:23.409Z,22.13
2022-12-04T04:02:33.210Z,28.50
2022-12-04T04:07:42.031Z,25.98
2022-12-04T04:12:51.009Z,21.67
2022-12-04T04:17:56.405Z,23.98
2022-12-04T04:23:02.103Z,28.92
2022-12-04T04:28:04.388Z,26.70
2022-12-04T04:33:12.803Z,29.63
2022-12-04T04:38:21.324Z,25.13
2022-12-04T04:43:26.631Z,29.65
2022-12-04T04:48:34.482Z,20.98
2022-12-04T04:53:40.854Z,28.05
2022-12-04T04:58:43.472Z,22.90
2022-12-04T05:03:47.024Z,22.63
2022-12-04T05:08:49.126Z,20.75
2022-12-04T05:13:51.473Z,22.75
2022-12-04T05:18:55.022Z,25.50
2022-12-04T05:23:57.166Z,23.80
2022-12-04T05:28:59.384Z,23.17
2022-12-04T05:34:02.979Z,22.70
2022-12-04T05:39:05.129Z,26.20
2022-12-04T05:44:07.249Z,20.42
2022-12-04T05:49:11.037Z,26.52
2022-12-04T05:54:13.225Z,16.80
2022-12-04T05:59:15.527Z,24.45
2022-12-04T06:04:19.172Z,22.30
2022-12-04T06:09:21.436Z,23.08
2022-12-04T06:14:23.675Z,18.00
2022-12-04T06:19:27.170Z,15.77
2022-12-04T06:24:29.343Z,18.73
2022-12-04T06:29:31.595Z,22.95
2022-12-04T06:34:35.160Z,22.27
2022-12-04T06:39:37.308Z,22.23
2022-12-04T06:44:39.422Z,18.08
2022-12-04T06:49:42.916Z,20.95
2022-12-04T06:54:45.072Z,20.00
2022-12-04T06:59:47.201Z,18.40
2022-12-04T07:04:55.011Z,20.90
2022-12-04T07:09:57.305Z,20.15
2022-12-04T07:14:59.734Z,20.30
2022-12-04T07:20:03.545Z,20.90
2022-12-04T07:25:06.198Z,18.55
2022-12-04T07:30:15.345Z,14.13
2022-12-04T07:35:19.783Z,19.08
2022-12-04T07:40:21.884Z,19.55
2022-12-04T07:45:24.073Z,20.58
2022-12-04T07:50:27.626Z,18.55
2022-12-04T07:55:29.818Z,20.80
2022-12-04T08:00:31.948Z,20.50
2022-12-04T08:05:35.545Z,19.58
2022-12-04T08:10:40.032Z,18.50
2022-12-04T08:15:42.274Z,19.70
2022-12-04T08:20:45.986Z,20.98
2022-12-04T08:25:48.143Z,17.92
2022-12-04T08:30:50.340Z,17.90
2022-12-04T08:35:53.995Z,19.75
2022-12-04T08:41:00.037Z,20.27
2022-12-04T08:46:05.413Z,18.08
2022-12-04T08:51:14.764Z,20.23
2022-12-04T08:56:16.862Z,17.23
2022-12-04T09:01:19.390Z,15.40
2022-12-04T09:06:23.346Z,18.40
2022-12-04T09:11:28.205Z,17.48
2022-12-04T09:16:30.610Z,17.10
2022-12-04T09:21:34.143Z,17.55
2022-12-04T09:26:36.197Z,21.02
2022-12-04T09:31:38.437Z,18.90
2022-12-04T09:36:42.114Z,18.55
2022-12-04T09:42:18.768Z,18.27
2022-12-04T09:47:25.683Z,14.27
2022-12-04T09:52:44.046Z,20.27
2022-12-04T09:57:54.844Z,19.55
2022-12-04T10:03:03.476Z,15.10
2022-12-04T10:08:13.568Z,14.10
2022-12-04T10:13:37.190Z,14.35
2022-12-04T10:18:47.275Z,18.05
2022-12-04T10:23:59.901Z,15.32
2022-12-04T10:29:06.099Z,15.07
2022-12-04T10:34:15.598Z,17.10
2022-12-04T10:39:24.551Z,15.18
2022-12-04T10:44:27.160Z,17.10
2022-12-04T10:49:30.794Z,13.60
2022-12-04T10:54:37.296Z,17.23
2022-12-04T10:59:40.735Z,14.48
2022-12-04T11:04:43.448Z,17.70
2022-12-04T11:09:56.095Z,17.35
2022-12-04T11:15:09.353Z,15.63
2022-12-04T11:20:18.516Z,16.85
2022-12-04T11:25:25.337Z,18.80
2022-12-04T11:30:35.264Z,16.83
2022-12-04T11:35:37.481Z,17.60
2022-12-04T11:40:47.323Z,17.27
2022-12-04T11:45:57.005Z,17.13
2022-12-04T11:51:07.717Z,17.95
2022-12-04T11:56:20.752Z,16.23
2022-12-04T12:01:36.215Z,17.73
2022-12-04T12:06:55.354Z,19.17
2022-12-04T12:12:05.972Z,18.30
2022-12-04T12:17:16.783Z,19.48
2022-12-04T12:22:28.676Z,16.55
2022-12-04T12:27:49.954Z,15.77
2022-12-04T12:33:04.539Z,18.83
2022-12-04T12:38:10.779Z,17.30
2022-12-04T12:43:20.946Z,15.50
2022-12-04T12:48:30.300Z,15.07
2022-12-04T12:53:36.836Z,17.48
2022-12-04T12:58:45.405Z,19.88
2022-12-04T13:03:57.407Z,15.00
2022-12-04T13:09:06.413Z,19.92
2022-12-04T13:14:13.995Z,18.52
2022-12-04T13:19:21.538Z,16.63
2022-12-04T13:24:47.244Z,19.83
2022-12-04T13:30:08.896Z,19.08
2022-12-04T13:35:19.884Z,19.45
2022-12-04T13:40:38.709Z,19.88
2022-12-04T13:45:45.762Z,17.08
2022-12-04T13:55:57.082Z,19.02
2022-12-04T14:01:06.903Z,21.13
2022-12-04T14:06:22.926Z,19.60
2022-12-04T14:11:26.681Z,19.02
2022-12-04T14:16:36.568Z,15.60
2022-12-04T14:21:40.920Z,19.00
2022-12-04T14:27:10.553Z,13.18
2022-12-04T14:32:16.844Z,15.25
2022-12-04T14:37:25.506Z,18.42
2022-12-04T14:42:32.122Z,16.75
2022-12-04T14:47:49.007Z,19.13
2022-12-04T14:52:59.532Z,18.50
2022-12-04T14:58:03.567Z,17.85
2022-12-04T15:03:13.734Z,18.30
2022-12-04T15:08:16.002Z,13.70
2022-12-04T15:13:26.230Z,15.05
2022-12-04T15:18:29.754Z,18.13
2022-12-04T15:23:38.105Z,19.30
2022-12-04T15:28:45.307Z,16.02
2022-12-04T15:38:53.436Z,19.20
2022-12-04T15:43:55.798Z,19.55
2022-12-04T15:49:15.623Z,19.08
2022-12-04T15:54:23.035Z,17.17
2022-12-04T15:59:27.938Z,17.08
2022-12-04T16:04:31.477Z,17.13
2022-12-04T16:09:33.706Z,16.75
2022-12-04T16:14:35.782Z,17.08
2022-12-04T16:19:41.339Z,16.48
2022-12-04T16:24:43.566Z,16.70
2022-12-04T16:29:45.794Z,17.10
2022-12-04T16:34:49.418Z,16.75
2022-12-04T16:39:51.511Z,16.45
2022-12-04T16:44:54.766Z,17.20
2022-12-04T16:49:58.482Z,17.20
2022-12-04T16:55:04.743Z,15.68
2022-12-04T17:00:11.407Z,13.75
2022-12-04T17:05:21.176Z,16.60
2022-12-04T17:10:24.441Z,15.23
2022-12-04T17:15:26.767Z,16.65
2022-12-04T17:20:30.516Z,14.73
2022-12-04T17:25:32.626Z,15.18
2022-12-04T17:30:36.433Z,16.42
2022-12-04T17:35:43.249Z,13.27
2022-12-04T17:40:45.423Z,13.97
2022-12-04T17:45:47.510Z,16.52
2022-12-04T17:51:02.579Z,16.60
2022-12-04T17:56:06.910Z,15.90
2022-12-04T18:01:10.622Z,14.10
2022-12-04T18:06:17.494Z,11.98
2022-12-04T18:11:21.787Z,13.93
2022-12-04T18:16:25.122Z,13.75
2022-12-04T18:21:29.307Z,11.73
2022-12-04T18:26:34.119Z,14.63
2022-12-04T18:31:36.285Z,15.20
2022-12-04T18:36:40.825Z,16.15
2022-12-04T18:41:43.272Z,15.52
2022-12-04T18:46:45.431Z,14.80
2022-12-04T18:51:50.287Z,17.02
2022-12-04T18:56:52.979Z,16.38
2022-12-04T19:01:55.781Z,17.17
2022-12-04T19:06:59.633Z,17.00
2022-12-04T19:12:01.694Z,17.23
2022-12-04T19:17:03.976Z,16.35
2022-12-04T19:22:07.726Z,15.73
2022-12-04T19:27:10.968Z,19.05
2022-12-04T19:32:13.727Z,15.55
2022-12-04T19:37:18.002Z,15.10
2022-12-04T19:42:20.100Z,14.07
2022-12-04T19:47:22.313Z,16.65
2022-12-04T19:52:25.912Z,17.55
2022-12-04T19:57:27.982Z,17.40
2022-12-04T20:02:30.165Z,16.35
2022-12-04T20:07:33.833Z,19.80
2022-12-04T20:12:35.986Z,19.38
2022-12-04T20:17:38.157Z,15.95
2022-12-04T20:22:44.588Z,16.63
2022-12-04T20:27:46.706Z,19.13
2022-12-04T20:32:48.890Z,18.98
2022-12-04T20:37:52.418Z,17.50
2022-12-04T20:42:54.742Z,19.20
2022-12-04T20:47:57.225Z,16.73
2022-12-04T20:53:00.669Z,19.20
2022-12-04T20:58:02.809Z,18.33
2022-12-04T21:03:05.042Z,16.90
2022-12-04T21:08:08.728Z,15.35
2022-12-04T21:13:10.962Z,17.02
2022-12-04T21:18:13.055Z,15.23
2022-12-04T21:23:16.585Z,15.25
2022-12-04T21:28:18.784Z,16.17
2022-12-04T21:33:21.022Z,14.50
2022-12-04T21:38:25.724Z,16.23
2022-12-04T21:43:31.230Z,15.80
2022-12-04T21:48:35.474Z,16.15
2022-12-04T21:53:42.450Z,16.02
2022-12-04T21:58:45.137Z,14.88
2022-12-04T22:03:47.494Z,13.32
2022-12-04T22:08:51.140Z,14.70
2022-12-04T22:13:53.208Z,14.80
2022-12-04T22:18:56.576Z,13.35
2022-12-04T22:24:01.930Z,13.68
2022-12-04T22:29:27.259Z,13.88
2022-12-04T22:34:28.312Z,14.10
2022-12-04T22:39:31.839Z,14.90
2022-12-04T22:44:33.926Z,13.82
2022-12-04T22:49:36.098Z,11.90
2022-12-04T22:54:39.728Z,13.80
2022-12-04T22:59:41.816Z,15.05
2022-12-04T23:04:44.050Z,12.45
2022-12-04T23:09:47.769Z,15.50
2022-12-04T23:14:50.043Z,15.43
2022-12-04T23:19:52.222Z,15.15
2022-12-04T23:24:55.859Z,15.32
2022-12-04T23:29:58.070Z,16.23
2022-12-04T23:35:00.199Z,15.45
2022-12-04T23:40:05.278Z,16.35
2022-12-04T23:45:08.328Z,14.15
2022-12-04T23:50:10.741Z,13.15
2022-12-04T23:55:14.568Z,11.20
